Vigie, St. Lucia

12:11 PM AST on September 02, 2014 (GMT -0400)
George F.L. Charles | Change Station
CLOSE
Current Station
Airport
Location: Vigie,
Elevation: 7 ft
Nearby Weather Stations

Elev 7 ft 14.02 °N, 60.99 °W | Updated 11 minutes ago

Mostly Cloudy
Mostly Cloudy
86 °F
Feels Like 97 °F
N
12
Wind Variable Wind from East
Gusts 23 mph

Today
High -- | Low -- °F
--% Chance of Precip.
Yesterday
High -- | Low -- °F
Precip. -- in
5:52 AM 6:14 PM
First Quarter, 52% visible
Pressure 29.95 in
Visibility 6.2 miles
Clouds Mostly Cloudy 2200 ft
Heat Index 97 °F
Dew Point 77 °F
Humidity 74%
Rainfall 0.00 in
Snow Depth Not available.
UV 10 out of 12
Pollen Not available.
Air Quality Not available.
Flu Activity Not available.
METAR TLPC 021600Z 09010G20KT 9999 BKN022 30/25 Q1014 NOSIG

More Conditions Fewer Conditions

Pressure 29.95 in
Visibility 6.2 miles
Clouds Mostly Cloudy 2200 ft
Heat Index 97 °F
Dew Point 77 °F
Humidity 74%
Rainfall 0.00 in
Snow Depth Not available.
UV 10 out of 12
Pollen Not available.
Air Quality Not available.
Flu Activity Not available.
METAR TLPC 021600Z 09010G20KT 9999 BKN022 30/25 Q1014 NOSIG

More Conditions Fewer Conditions

10-Day Weather Forecast

Almanac

Astronomy

Sep. 02, 2014 Rise Set
Actual Time 5:52 AM AST 6:14 PM AST
Civil Twilight 5:30 AM AST 6:36 PM AST
Nautical Twilight 5:05 AM AST 7:01 PM AST
Astronomical Twilight 4:40 AM AST 7:26 PM AST
Moon 12:24 PM AST No Moon Set
Length of Visible Light 13h 05m
Length of Day
12h 22m
Tomorrow will be 0m 45s shorter.
First Quarter, 52% of the Moon is Illuminated
Today
First Quarter
Sep 8
Full
Sep 15
Last Quarter
Sep 24
New
Oct 1
First Quarter

Today's Extremes

Country Highs Country Lows

Community

WunderPhotos

Upload Photos

1,749,709 photos uploaded!

Nearby

Snow Depth

Not available.

Earthquake Activity

City Distance Mag. Time & Date
No recent earthquake activity has been reported nearby.
Minimum magnitude displayed is 2.5.

Coastal Water Temperatures

Place Temperature
No Stations Reporting

Nearby Weather Stations